createdAt,value
2022-08-25T00:01:50.746Z,32.90
2022-08-25T00:04:21.273Z,34.97
2022-08-25T00:06:53.080Z,34.33
2022-08-25T00:09:24.983Z,35.53
2022-08-25T00:11:54.084Z,31.80
2022-08-25T00:14:28.579Z,34.70
2022-08-25T00:16:57.626Z,33.27
2022-08-25T00:19:28.773Z,34.80
2022-08-25T00:21:58.057Z,34.00
2022-08-25T00:24:27.128Z,35.50
2022-08-25T00:26:58.104Z,35.43
2022-08-25T00:29:29.144Z,35.53
2022-08-25T00:31:58.246Z,35.20
2022-08-25T00:34:29.906Z,36.03
2022-08-25T00:36:58.790Z,35.97
2022-08-25T00:39:28.270Z,34.60
2022-08-25T00:41:59.170Z,33.27
2022-08-25T00:44:32.682Z,34.70
2022-08-25T00:47:03.919Z,38.13
2022-08-25T00:49:37.291Z,35.77
2022-08-25T00:52:09.063Z,36.83
2022-08-25T00:54:42.270Z,34.43
2022-08-25T00:57:13.587Z,34.33
2022-08-25T00:59:44.645Z,35.37
2022-08-25T01:02:14.770Z,34.83
2022-08-25T01:04:48.981Z,35.43
2022-08-25T01:07:20.681Z,36.07
2022-08-25T01:09:53.566Z,36.03
2022-08-25T01:12:23.277Z,35.27
2022-08-25T01:14:55.102Z,35.37
2022-08-25T01:17:28.045Z,35.73
2022-08-25T01:19:56.993Z,36.47
2022-08-25T01:22:27.399Z,34.80
2022-08-25T01:25:04.200Z,35.60
2022-08-25T01:27:32.834Z,33.00
2022-08-25T01:30:01.716Z,34.47
2022-08-25T01:32:30.425Z,34.30
2022-08-25T01:34:59.157Z,33.60
2022-08-25T01:37:29.275Z,34.30
2022-08-25T01:39:58.006Z,34.23
2022-08-25T01:42:39.965Z,35.97
2022-08-25T01:45:10.564Z,35.57
2022-08-25T01:47:39.795Z,36.67
2022-08-25T01:50:09.397Z,33.97
2022-08-25T01:52:48.922Z,34.93
2022-08-25T01:55:17.919Z,34.93
2022-08-25T01:57:46.608Z,32.77
2022-08-25T02:00:17.121Z,35.80
2022-08-25T02:02:45.836Z,32.47
2022-08-25T02:05:20.326Z,31.83
2022-08-25T02:07:53.911Z,34.37
2022-08-25T02:10:22.708Z,36.73
2022-08-25T02:12:53.092Z,34.43
2022-08-25T02:15:23.427Z,33.03
2022-08-25T02:17:52.125Z,34.40
2022-08-25T02:20:20.794Z,38.30
2022-08-25T02:22:53.004Z,40.37
2022-08-25T02:25:27.140Z,39.90
2022-08-25T02:27:55.865Z,41.00
2022-08-25T02:30:24.877Z,39.33
2022-08-25T02:32:53.589Z,36.93
2022-08-25T02:35:22.649Z,36.80
2022-08-25T02:37:52.663Z,35.57
2022-08-25T02:40:23.796Z,36.13
2022-08-25T02:42:54.051Z,37.30
2022-08-25T02:45:23.017Z,35.77
2022-08-25T02:47:51.984Z,39.90
2022-08-25T02:50:20.846Z,37.20
2022-08-25T02:52:50.970Z,38.77
2022-08-25T02:55:20.802Z,35.70
2022-08-25T02:57:49.569Z,35.10
2022-08-25T03:00:20.328Z,35.97
2022-08-25T03:02:49.041Z,36.83
2022-08-25T03:05:18.136Z,36.47
2022-08-25T03:07:46.874Z,36.20
2022-08-25T03:10:19.927Z,34.30
2022-08-25T03:12:48.962Z,33.80
2022-08-25T03:15:19.763Z,32.17
2022-08-25T03:17:50.601Z,32.60
2022-08-25T03:20:20.186Z,33.33
2022-08-25T03:22:49.252Z,34.63
2022-08-25T03:25:35.257Z,33.50
2022-08-25T03:28:05.203Z,34.33
2022-08-25T03:30:35.994Z,36.73
2022-08-25T03:33:04.870Z,34.57
2022-08-25T03:35:33.534Z,34.53
2022-08-25T03:38:02.394Z,35.27
2022-08-25T03:40:31.369Z,34.63
2022-08-25T03:43:00.372Z,34.83
2022-08-25T03:45:29.212Z,34.77
2022-08-25T03:47:59.692Z,35.93
2022-08-25T03:50:28.367Z,34.93
2022-08-25T03:52:58.346Z,34.20
2022-08-25T03:55:27.757Z,36.07
2022-08-25T03:57:57.733Z,34.83
2022-08-25T04:00:26.398Z,35.40
2022-08-25T04:02:55.027Z,34.87
2022-08-25T04:05:25.060Z,32.40
2022-08-25T04:07:56.114Z,32.37
2022-08-25T04:10:24.969Z,31.37
2022-08-25T04:12:53.664Z,33.10
2022-08-25T04:15:22.281Z,32.93
2022-08-25T04:17:51.967Z,33.00
2022-08-25T04:20:24.454Z,33.43
2022-08-25T04:22:53.118Z,33.87
2022-08-25T04:25:21.889Z,32.80
2022-08-25T04:27:51.015Z,31.63
2022-08-25T04:30:19.953Z,30.10
2022-08-25T04:32:49.443Z,32.07
2022-08-25T04:35:18.418Z,31.30
2022-08-25T04:37:49.082Z,33.50
2022-08-25T04:40:17.914Z,32.17
2022-08-25T04:42:48.223Z,30.63
2022-08-25T04:45:17.170Z,30.17
2022-08-25T04:47:46.270Z,29.40
2022-08-25T04:50:14.899Z,29.20
2022-08-25T04:52:43.604Z,30.20
2022-08-25T04:55:13.713Z,31.47
2022-08-25T04:57:42.370Z,30.20
2022-08-25T05:00:13.162Z,27.77
2022-08-25T05:02:41.841Z,27.73
2022-08-25T05:05:10.521Z,30.03
2022-08-25T05:07:39.435Z,28.47
2022-08-25T05:10:09.351Z,28.57
2022-08-25T05:12:39.573Z,27.20
2022-08-25T05:15:24.604Z,27.23
2022-08-25T05:17:55.973Z,26.73
2022-08-25T05:20:25.379Z,26.10
2022-08-25T05:22:54.311Z,24.97
2022-08-25T05:25:23.029Z,25.53
2022-08-25T05:27:53.138Z,24.87
2022-08-25T05:30:21.875Z,25.07
2022-08-25T05:32:50.533Z,26.77
2022-08-25T05:35:20.065Z,25.70
2022-08-25T05:37:49.067Z,26.10
2022-08-25T05:40:17.836Z,25.20
2022-08-25T05:42:46.424Z,24.93
2022-08-25T05:45:17.392Z,24.33
2022-08-25T05:47:49.464Z,24.20
2022-08-25T05:50:19.050Z,22.67
2022-08-25T05:52:47.900Z,25.10
2022-08-25T05:55:16.828Z,24.97
2022-08-25T05:57:45.577Z,24.37
2022-08-25T06:00:17.457Z,25.17
2022-08-25T06:02:46.591Z,24.30
2022-08-25T06:05:17.677Z,24.60
2022-08-25T06:07:47.018Z,25.80
2022-08-25T06:10:16.854Z,25.83
2022-08-25T06:12:46.718Z,25.93
2022-08-25T06:15:18.707Z,26.30
2022-08-25T06:17:48.293Z,25.47
2022-08-25T06:20:19.427Z,26.27
2022-08-25T06:22:51.195Z,26.60
2022-08-25T06:25:22.326Z,23.83
2022-08-25T06:27:51.382Z,24.13
2022-08-25T06:30:28.676Z,24.90
2022-08-25T06:32:57.726Z,22.90
2022-08-25T06:35:26.376Z,22.53
2022-08-25T06:37:55.019Z,21.30
2022-08-25T06:40:24.580Z,21.80
2022-08-25T06:42:53.519Z,20.40
2022-08-25T06:45:23.573Z,22.17
2022-08-25T06:47:53.114Z,21.90
2022-08-25T06:50:21.930Z,22.00
2022-08-25T06:52:52.101Z,22.03
2022-08-25T06:55:21.203Z,19.47
2022-08-25T06:57:49.903Z,20.40
2022-08-25T07:00:19.000Z,22.03
2022-08-25T07:02:49.016Z,22.70
2022-08-25T07:05:33.552Z,22.33
2022-08-25T07:08:02.673Z,22.47
2022-08-25T07:10:31.690Z,22.57
2022-08-25T07:13:00.310Z,19.67
2022-08-25T07:15:28.940Z,21.60
2022-08-25T07:17:59.541Z,22.43
2022-08-25T07:20:29.521Z,21.00
2022-08-25T07:22:59.224Z,20.10
2022-08-25T07:25:28.034Z,21.50
2022-08-25T07:27:59.052Z,21.23
2022-08-25T07:30:28.447Z,21.33
2022-08-25T07:32:58.444Z,21.13
2022-08-25T07:35:27.554Z,20.40
2022-08-25T07:38:10.148Z,21.30
2022-08-25T07:40:42.737Z,21.50
2022-08-25T07:43:11.864Z,23.40
2022-08-25T07:45:49.167Z,19.97
2022-08-25T07:48:20.804Z,19.20
2022-08-25T07:50:49.989Z,20.70
2022-08-25T07:53:19.334Z,19.67
2022-08-25T07:55:47.920Z,21.90
2022-08-25T07:58:16.788Z,20.40
2022-08-25T08:00:48.800Z,19.63
2022-08-25T08:03:42.198Z,17.97
2022-08-25T08:06:11.779Z,20.60
2022-08-25T08:08:43.527Z,21.00
2022-08-25T08:11:18.210Z,23.57
2022-08-25T08:13:48.215Z,20.60
2022-08-25T08:16:20.933Z,18.50
2022-08-25T08:18:51.665Z,19.10
2022-08-25T08:21:22.758Z,18.95
2022-08-25T08:23:58.076Z,16.10
2022-08-25T08:26:48.221Z,16.90
2022-08-25T08:29:17.329Z,12.35
2022-08-25T08:31:48.752Z,12.95
2022-08-25T08:34:19.486Z,10.30
2022-08-25T08:36:53.813Z,10.93
2022-08-25T08:39:23.300Z,10.38
2022-08-25T08:42:20.927Z,9.63
2022-08-25T08:45:17.543Z,11.25
2022-08-25T08:47:56.485Z,9.88
2022-08-25T08:50:33.906Z,9.85
2022-08-25T08:53:09.456Z,9.32
2022-08-25T08:55:41.363Z,8.88
2022-08-25T08:58:17.999Z,9.77
2022-08-25T09:00:52.463Z,10.18
2022-08-25T09:03:35.430Z,10.27
2022-08-25T09:06:09.268Z,8.88
2022-08-25T09:08:44.568Z,9.57
2022-08-25T09:11:20.463Z,9.85
2022-08-25T09:14:20.200Z,9.70
2022-08-25T09:16:59.049Z,9.88
2022-08-25T09:19:48.633Z,8.10
2022-08-25T09:22:36.383Z,8.00
2022-08-25T09:25:14.533Z,8.20
2022-08-25T09:27:55.136Z,6.82
2022-08-25T09:30:25.187Z,7.35
2022-08-25T09:33:05.306Z,6.88
2022-08-25T09:35:37.838Z,6.75
2022-08-25T09:38:10.303Z,7.35
2022-08-25T09:40:42.528Z,5.68
2022-08-25T09:43:23.119Z,7.65
2022-08-25T09:46:01.312Z,7.40
2022-08-25T09:48:40.592Z,6.78
2022-08-25T09:51:22.067Z,6.47
2022-08-25T09:53:57.130Z,5.80
2022-08-25T09:56:28.167Z,6.13
2022-08-25T09:59:03.018Z,5.60
2022-08-25T10:01:34.806Z,7.10
2022-08-25T10:04:05.691Z,5.63
2022-08-25T10:06:45.842Z,6.00
2022-08-25T10:09:29.671Z,5.05
2022-08-25T10:12:01.332Z,4.90
2022-08-25T10:14:36.488Z,4.95
2022-08-25T10:17:27.384Z,4.85
2022-08-25T10:20:16.444Z,5.80
2022-08-25T10:22:48.272Z,5.78
2022-08-25T10:25:31.382Z,5.60
2022-08-25T10:28:12.702Z,5.35
2022-08-25T10:30:55.916Z,5.32
2022-08-25T10:33:34.184Z,4.70
2022-08-25T10:36:10.799Z,5.88
2022-08-25T10:38:43.285Z,4.82
2022-08-25T10:41:44.092Z,4.22
2022-08-25T10:44:40.524Z,5.22
2022-08-25T10:47:29.906Z,5.15
2022-08-25T10:50:05.645Z,4.90
2022-08-25T10:52:40.672Z,5.90
2022-08-25T10:55:18.690Z,5.07
2022-08-25T10:57:57.852Z,5.57
2022-08-25T11:00:35.822Z,5.35
2022-08-25T11:03:19.286Z,5.60
2022-08-25T11:05:52.636Z,5.88
2022-08-25T11:08:33.832Z,4.93
2022-08-25T11:11:14.281Z,5.00
2022-08-25T11:13:54.653Z,4.70
2022-08-25T11:16:33.379Z,4.93
2022-08-25T11:19:08.692Z,6.85
2022-08-25T11:21:46.050Z,5.50
2022-08-25T11:24:31.292Z,5.53
2022-08-25T11:27:01.216Z,5.95
2022-08-25T11:29:37.051Z,5.45
2022-08-25T11:32:08.916Z,5.82
2022-08-25T11:34:43.623Z,5.18
2022-08-25T11:37:21.813Z,4.95
2022-08-25T11:40:22.697Z,6.15
2022-08-25T11:43:24.607Z,5.78
2022-08-25T11:46:21.173Z,6.15
2022-08-25T11:49:04.834Z,5.47
2022-08-25T11:51:42.220Z,5.43
2022-08-25T11:54:21.285Z,6.00
2022-08-25T11:56:58.153Z,6.32
2022-08-25T12:00:09.547Z,5.45
2022-08-25T12:02:42.777Z,6.28
2022-08-25T12:05:33.627Z,4.72
2022-08-25T12:08:31.887Z,5.65
2022-08-25T12:11:07.163Z,6.18
2022-08-25T12:13:45.960Z,5.63
2022-08-25T12:16:47.702Z,4.75
2022-08-25T12:19:49.909Z,5.70
2022-08-25T12:22:44.495Z,5.50
2022-08-25T12:25:40.275Z,6.10
2022-08-25T12:28:35.393Z,5.22
2022-08-25T12:31:11.231Z,4.82
2022-08-25T12:33:49.590Z,5.95
2022-08-25T12:36:36.043Z,5.90
2022-08-25T12:39:24.616Z,6.50
2022-08-25T12:45:07.171Z,5.18
2022-08-25T12:47:37.767Z,6.57
2022-08-25T12:50:33.459Z,4.65
2022-08-25T12:53:13.651Z,6.32
2022-08-25T12:55:48.777Z,5.30
2022-08-25T12:58:18.123Z,5.03
2022-08-25T13:01:15.670Z,5.38
2022-08-25T13:04:48.337Z,5.63
2022-08-25T13:07:31.498Z,6.28
2022-08-25T13:10:19.949Z,7.18
2022-08-25T13:12:56.857Z,5.82
2022-08-25T13:15:38.538Z,5.28
2022-08-25T13:18:21.055Z,4.95
2022-08-25T13:20:55.169Z,5.05
2022-08-25T13:23:29.146Z,5.22
2022-08-25T13:26:02.532Z,5.25
2022-08-25T13:28:40.728Z,5.53
2022-08-25T13:31:19.446Z,5.45
2022-08-25T13:33:58.232Z,5.28
2022-08-25T13:36:52.036Z,4.75
2022-08-25T13:39:52.849Z,4.65
2022-08-25T13:42:23.959Z,5.70
2022-08-25T13:44:59.531Z,5.60
2022-08-25T13:47:43.647Z,5.50
2022-08-25T13:50:34.243Z,5.22
2022-08-25T13:53:11.338Z,5.38
2022-08-25T13:55:50.989Z,5.60
2022-08-25T13:58:34.325Z,5.82
2022-08-25T14:01:19.927Z,5.93
2022-08-25T14:04:32.798Z,5.35
2022-08-25T14:07:34.024Z,6.40
2022-08-25T14:10:07.190Z,6.40
2022-08-25T14:12:39.951Z,5.70
2022-08-25T14:15:13.223Z,5.25
2022-08-25T14:17:49.429Z,6.18
2022-08-25T14:20:28.385Z,5.55
2022-08-25T14:23:09.849Z,6.05
2022-08-25T14:25:40.760Z,5.40
2022-08-25T14:28:16.570Z,6.15
2022-08-25T14:30:51.671Z,7.07
2022-08-25T14:33:27.994Z,5.75
2022-08-25T14:36:03.020Z,5.68
2022-08-25T14:38:33.725Z,5.88
2022-08-25T14:43:37.284Z,8.32
2022-08-25T14:46:15.409Z,9.15
2022-08-25T14:48:49.459Z,6.88
2022-08-25T14:51:20.720Z,5.60
2022-08-25T14:53:52.678Z,7.30
2022-08-25T14:56:25.914Z,13.60
2022-08-25T14:59:00.626Z,6.53
2022-08-25T15:01:36.310Z,5.90
2022-08-25T15:04:15.731Z,8.55
2022-08-25T15:06:47.918Z,5.65
2022-08-25T15:09:19.210Z,5.38
2022-08-25T15:11:59.422Z,5.93
2022-08-25T15:14:35.541Z,5.35
2022-08-25T15:17:08.712Z,9.95
2022-08-25T15:19:44.662Z,15.40
2022-08-25T15:22:29.750Z,15.15
2022-08-25T15:25:26.788Z,7.03
2022-08-25T15:28:03.307Z,9.68
2022-08-25T15:30:53.604Z,9.13
2022-08-25T15:33:34.392Z,11.98
2022-08-25T15:36:16.965Z,9.57
2022-08-25T15:39:02.729Z,10.45
2022-08-25T15:41:45.056Z,10.45
2022-08-25T15:44:17.030Z,8.35
2022-08-25T15:46:57.406Z,8.35
2022-08-25T15:49:33.871Z,8.05
2022-08-25T15:52:46.665Z,6.10
2022-08-25T15:55:29.124Z,6.80
2022-08-25T15:57:59.264Z,7.83
2022-08-25T16:00:31.806Z,8.50
2022-08-25T16:07:35.103Z,6.83
2022-08-25T16:11:32.053Z,6.77
2022-08-25T16:17:28.448Z,6.93
2022-08-25T16:20:25.043Z,7.80
2022-08-25T16:23:11.655Z,6.60
2022-08-25T16:29:09.580Z,9.90
2022-08-25T16:31:41.625Z,9.87
2022-08-25T16:34:15.004Z,8.10
2022-08-25T16:40:10.599Z,7.10
2022-08-25T16:42:41.867Z,10.43
2022-08-25T16:45:16.363Z,10.47
2022-08-25T16:48:24.585Z,12.50
2022-08-25T16:55:02.502Z,11.27
2022-08-25T16:58:18.523Z,11.07
2022-08-25T17:01:20.823Z,25.20
2022-08-25T17:03:54.642Z,22.80
2022-08-25T17:06:28.404Z,23.00
2022-08-25T17:08:58.494Z,20.00
2022-08-25T17:11:30.662Z,18.50
2022-08-25T17:14:10.960Z,24.37
2022-08-25T17:16:40.225Z,37.63
2022-08-25T17:19:15.865Z,43.53
2022-08-25T17:22:14.839Z,33.10
2022-08-25T17:25:15.054Z,31.07
2022-08-25T17:28:03.189Z,19.40
2022-08-25T17:31:31.975Z,19.60
2022-08-25T17:34:33.830Z,16.60
2022-08-25T17:37:29.904Z,19.57
2022-08-25T17:40:26.546Z,16.63
2022-08-25T17:43:04.366Z,15.20
2022-08-25T17:45:46.721Z,11.10
2022-08-25T17:48:27.503Z,10.73
2022-08-25T17:50:57.444Z,9.90
2022-08-25T17:53:55.083Z,8.53
2022-08-25T17:56:36.562Z,9.67
2022-08-25T17:59:33.759Z,12.77
2022-08-25T18:02:12.521Z,12.50
2022-08-25T18:04:57.955Z,11.47
2022-08-25T18:08:52.240Z,11.80
2022-08-25T18:11:30.096Z,10.77
2022-08-25T18:14:10.838Z,11.47
2022-08-25T18:16:42.217Z,13.93
2022-08-25T18:19:14.334Z,14.40
2022-08-25T18:22:21.167Z,14.10
2022-08-25T18:28:40.129Z,13.60
2022-08-25T18:31:14.154Z,13.60
2022-08-25T18:33:45.539Z,14.63
2022-08-25T18:36:17.407Z,16.27
2022-08-25T18:39:05.536Z,14.67
2022-08-25T18:41:38.245Z,11.10
2022-08-25T18:44:07.627Z,10.03
2022-08-25T18:46:37.114Z,10.10
2022-08-25T18:49:06.243Z,10.70
2022-08-25T18:51:36.940Z,10.53
2022-08-25T18:54:06.632Z,12.07
2022-08-25T18:56:36.990Z,11.50
2022-08-25T18:59:05.909Z,11.13
2022-08-25T19:01:35.828Z,12.50
2022-08-25T19:04:05.584Z,11.50
2022-08-25T19:06:37.892Z,11.50
2022-08-25T19:09:07.545Z,11.30
2022-08-25T19:11:36.451Z,10.70
2022-08-25T19:14:12.222Z,10.30
2022-08-25T19:16:43.891Z,9.57
2022-08-25T19:19:14.001Z,10.57
2022-08-25T19:21:44.738Z,9.80
2022-08-25T19:24:17.732Z,9.87
2022-08-25T19:26:49.581Z,9.20
2022-08-25T19:29:21.477Z,9.43
2022-08-25T19:31:51.236Z,9.00
2022-08-25T19:34:28.235Z,9.80
2022-08-25T19:37:03.085Z,10.70
2022-08-25T19:39:35.527Z,11.10
2022-08-25T19:42:37.224Z,9.23
2022-08-25T19:44:59.446Z,10.40
2022-08-25T19:47:30.059Z,10.10
2022-08-25T19:50:01.206Z,10.87
2022-08-25T19:52:31.948Z,10.77
2022-08-25T19:55:04.593Z,8.93
2022-08-25T19:57:42.790Z,10.40
2022-08-25T20:00:16.142Z,9.60
2022-08-25T20:02:46.535Z,9.30
2022-08-25T20:05:23.845Z,10.27
2022-08-25T20:07:56.775Z,10.17
2022-08-25T20:10:28.448Z,9.30
2022-08-25T20:12:57.634Z,9.60
2022-08-25T20:15:27.657Z,10.03
2022-08-25T20:17:56.918Z,9.73
2022-08-25T20:20:32.416Z,9.60
2022-08-25T20:23:19.305Z,12.70
2022-08-25T20:25:48.700Z,11.40
2022-08-25T20:28:19.305Z,9.50
2022-08-25T20:30:48.506Z,10.43
2022-08-25T20:33:22.916Z,9.63
2022-08-25T20:35:53.011Z,10.60
2022-08-25T20:38:23.975Z,10.30
2022-08-25T20:40:53.024Z,9.93
2022-08-25T20:43:22.080Z,10.90
2022-08-25T20:45:51.424Z,11.10
2022-08-25T20:48:20.343Z,9.37
2022-08-25T20:50:54.359Z,11.00
2022-08-25T20:53:28.284Z,9.40
2022-08-25T20:55:57.880Z,9.47
2022-08-25T20:58:26.748Z,10.03
2022-08-25T21:00:55.656Z,11.50
2022-08-25T21:03:24.821Z,11.80
2022-08-25T21:05:54.207Z,10.70
2022-08-25T21:08:23.651Z,10.97
2022-08-25T21:10:54.073Z,11.40
2022-08-25T21:13:22.937Z,11.20
2022-08-25T21:15:51.808Z,12.23
2022-08-25T21:18:20.963Z,11.73
2022-08-25T21:20:49.776Z,10.60
2022-08-25T21:23:18.839Z,11.33
2022-08-25T21:25:47.637Z,11.43
2022-08-25T21:28:18.230Z,12.43
2022-08-25T21:30:50.322Z,11.67
2022-08-25T21:33:19.124Z,12.27
2022-08-25T21:35:48.145Z,11.60
2022-08-25T21:38:18.089Z,11.67
2022-08-25T21:40:46.804Z,11.57
2022-08-25T21:43:18.933Z,12.83
2022-08-25T21:45:47.701Z,12.50
2022-08-25T21:48:16.990Z,12.50
2022-08-25T21:50:45.675Z,12.70
2022-08-25T21:53:14.502Z,12.10
2022-08-25T21:55:45.529Z,11.50
2022-08-25T21:58:14.241Z,12.83
2022-08-25T22:00:44.935Z,11.97
2022-08-25T22:03:13.727Z,11.63
2022-08-25T22:05:45.600Z,12.37
2022-08-25T22:08:14.533Z,11.30
2022-08-25T22:10:45.839Z,11.50
2022-08-25T22:13:14.607Z,11.50
2022-08-25T22:15:44.802Z,12.20
2022-08-25T22:18:13.552Z,12.10
2022-08-25T22:20:42.331Z,13.23
2022-08-25T22:23:11.138Z,12.47
2022-08-25T22:25:49.136Z,12.23
2022-08-25T22:28:18.441Z,13.40
2022-08-25T22:30:48.808Z,14.67
2022-08-25T22:33:17.817Z,14.57
2022-08-25T22:35:46.747Z,13.80
2022-08-25T22:38:15.873Z,12.77
2022-08-25T22:40:45.579Z,12.10
2022-08-25T22:43:15.339Z,14.10
2022-08-25T22:45:44.334Z,11.90
2022-08-25T22:48:14.599Z,13.67
2022-08-25T22:50:43.421Z,12.67
2022-08-25T22:53:13.337Z,13.57
2022-08-25T22:55:45.594Z,12.73
2022-08-25T22:58:15.350Z,13.20
2022-08-25T23:00:44.055Z,12.47
2022-08-25T23:03:14.331Z,13.80
2022-08-25T23:05:43.080Z,13.20
2022-08-25T23:08:11.729Z,13.60
2022-08-25T23:10:40.567Z,13.17
2022-08-25T23:13:09.300Z,14.07
2022-08-25T23:15:38.199Z,13.53
2022-08-25T23:18:08.060Z,14.33
2022-08-25T23:20:55.911Z,13.60
2022-08-25T23:23:25.839Z,13.20
2022-08-25T23:25:55.380Z,14.00
2022-08-25T23:28:24.055Z,13.20
2022-08-25T23:30:59.359Z,13.90
2022-08-25T23:33:28.749Z,13.43
2022-08-25T23:36:04.345Z,13.63
2022-08-25T23:38:33.305Z,14.43
2022-08-25T23:41:07.627Z,15.03
2022-08-25T23:43:38.473Z,13.40
2022-08-25T23:46:08.176Z,13.20
2022-08-25T23:48:36.937Z,13.40
2022-08-25T23:51:07.833Z,13.77
2022-08-25T23:53:36.940Z,14.67
2022-08-25T23:56:06.711Z,15.20
2022-08-25T23:58:36.137Z,13.40
